Terminal Aerodrome Forecast
Issued by NWS

Home | Current Version | Previous Version | Text Only | Print | Product List | Glossary On
Versions: 1 2 3 4 5 6 7 8 9 10 11 12 13 14 15
000
FTUS41 KCAR 251352 AAA
TAFPQI
TAF AMD
KPQI 251352Z 2514/2612 14008KT 2SM -DZ BR OVC003
     FM251900 15010KT 2SM -DZ BR OVC002 WS020/18040KT
     FM252100 15011KT 3/4SM -DZ BR OVC001 WS020/18040KT
     FM260400 15011KT 1SM -RA OVC003 WS020/17040KT
     FM261000 26009KT P6SM OVC020=

USA.gov is the U.S. government's official web portal to all federal, state and local government web resources and services.